createdAt,value
2022-10-12T00:00:45.192Z,86.20
2022-10-12T00:03:13.379Z,86.19
2022-10-12T00:05:43.429Z,86.29
2022-10-12T00:08:11.314Z,86.13
2022-10-12T00:10:41.923Z,86.27
2022-10-12T00:13:10.841Z,86.57
2022-10-12T00:15:40.219Z,86.75
2022-10-12T00:18:08.843Z,86.49
2022-10-12T00:20:37.308Z,86.44
2022-10-12T00:23:06.384Z,86.49
2022-10-12T00:25:37.867Z,86.50
2022-10-12T00:28:06.076Z,86.43
2022-10-12T00:30:35.086Z,86.32
2022-10-12T00:33:02.779Z,86.12
2022-10-12T00:35:30.534Z,86.34
2022-10-12T00:37:58.359Z,86.26
2022-10-12T00:40:27.870Z,86.38
2022-10-12T00:42:55.550Z,86.35
2022-10-12T00:45:26.397Z,86.41
2022-10-12T00:47:57.681Z,86.71
2022-10-12T00:50:28.127Z,86.60
2022-10-12T00:52:59.544Z,86.57
2022-10-12T00:55:33.006Z,86.51
2022-10-12T00:58:01.867Z,86.62
2022-10-12T01:00:30.231Z,87.44
2022-10-12T01:02:59.019Z,88.08
2022-10-12T01:05:26.938Z,87.17
2022-10-12T01:07:54.816Z,86.54
2022-10-12T01:10:23.122Z,86.17
2022-10-12T01:12:52.227Z,86.33
2022-10-12T01:15:20.723Z,86.37
2022-10-12T01:17:58.805Z,86.34
2022-10-12T01:20:43.664Z,86.15
2022-10-12T01:23:34.941Z,85.84
2022-10-12T01:26:30.041Z,85.80
2022-10-12T01:29:13.471Z,86.10
2022-10-12T01:31:48.276Z,86.04
2022-10-12T01:34:23.060Z,86.06
2022-10-12T01:36:58.454Z,86.07
2022-10-12T01:39:33.130Z,86.07
2022-10-12T01:42:05.858Z,85.98
2022-10-12T01:44:37.986Z,86.09
2022-10-12T01:47:09.520Z,86.34
2022-10-12T01:49:38.644Z,86.36
2022-10-12T01:52:29.052Z,86.37
2022-10-12T01:55:12.327Z,86.17
2022-10-12T01:57:51.775Z,86.25
2022-10-12T02:00:21.082Z,86.02
2022-10-12T02:03:01.728Z,86.41
2022-10-12T02:05:37.690Z,86.34
2022-10-12T02:08:11.627Z,86.24
2022-10-12T02:10:45.736Z,86.26
2022-10-12T02:13:16.247Z,86.50
2022-10-12T02:15:45.678Z,86.39
2022-10-12T02:18:19.005Z,86.42
2022-10-12T02:20:50.089Z,86.51
2022-10-12T02:23:19.527Z,86.37
2022-10-12T02:25:48.095Z,86.20
2022-10-12T02:28:19.635Z,86.34
2022-10-12T02:30:53.489Z,86.40
2022-10-12T02:33:26.602Z,86.42
2022-10-12T02:36:01.638Z,86.06
2022-10-12T02:38:34.344Z,86.25
2022-10-12T02:41:06.656Z,86.07
2022-10-12T02:43:39.302Z,86.17
2022-10-12T02:46:10.795Z,86.08
2022-10-12T02:48:41.682Z,86.04
2022-10-12T02:51:12.681Z,85.96
2022-10-12T02:53:41.278Z,86.10
2022-10-12T02:56:14.739Z,86.12
2022-10-12T02:58:44.938Z,86.29
2022-10-12T03:01:13.771Z,86.10
2022-10-12T03:03:42.879Z,86.15
2022-10-12T03:06:11.233Z,86.21
2022-10-12T03:08:39.664Z,86.25
2022-10-12T03:11:12.203Z,86.44
2022-10-12T03:13:39.895Z,86.40
2022-10-12T03:16:10.221Z,86.23
2022-10-12T03:18:38.417Z,86.21
2022-10-12T03:21:07.941Z,86.20
2022-10-12T03:23:35.635Z,86.28
2022-10-12T03:26:03.964Z,86.40
2022-10-12T03:28:32.024Z,86.13
2022-10-12T03:31:00.625Z,86.30
2022-10-12T03:33:28.331Z,86.30
2022-10-12T03:35:56.390Z,86.25
2022-10-12T03:38:25.509Z,86.29
2022-10-12T03:40:53.200Z,86.11
2022-10-12T03:43:20.888Z,85.82
2022-10-12T03:45:49.930Z,85.69
2022-10-12T03:48:17.706Z,85.75
2022-10-12T03:50:50.288Z,85.54
2022-10-12T03:53:18.329Z,85.84
2022-10-12T03:55:48.043Z,86.04
2022-10-12T03:58:16.196Z,86.26
2022-10-12T04:00:44.439Z,86.21
2022-10-12T04:03:12.134Z,86.48
2022-10-12T04:05:40.927Z,86.48
2022-10-12T04:08:11.436Z,86.51
2022-10-12T04:10:39.629Z,86.44
2022-10-12T04:13:09.006Z,86.43
2022-10-12T04:15:36.685Z,86.29
2022-10-12T04:18:04.922Z,86.27
2022-10-12T04:20:32.758Z,86.42
2022-10-12T04:23:00.965Z,86.59
2022-10-12T04:25:30.240Z,86.65
2022-10-12T04:27:58.295Z,86.45
2022-10-12T04:30:27.402Z,86.37
2022-10-12T04:32:56.638Z,86.79
2022-10-12T04:35:24.323Z,86.68
2022-10-12T04:37:52.411Z,86.72
2022-10-12T04:40:20.112Z,86.82
2022-10-12T04:42:48.170Z,86.43
2022-10-12T04:45:16.063Z,86.58
2022-10-12T04:47:45.811Z,86.51
2022-10-12T04:50:13.599Z,86.63
2022-10-12T04:52:41.589Z,86.52
2022-10-12T04:55:10.115Z,86.42
2022-10-12T04:57:38.549Z,86.42
2022-10-12T05:00:07.655Z,86.33
2022-10-12T05:02:35.650Z,86.43
2022-10-12T05:05:04.888Z,86.66
2022-10-12T05:07:33.066Z,86.56
2022-10-12T05:10:00.767Z,86.67
2022-10-12T05:12:29.031Z,86.29
2022-10-12T05:14:58.195Z,86.58
2022-10-12T05:17:26.479Z,86.49
2022-10-12T05:19:54.170Z,86.42
2022-10-12T05:22:23.775Z,86.39
2022-10-12T05:24:53.798Z,86.32
2022-10-12T05:27:22.296Z,86.37
2022-10-12T05:29:49.967Z,86.35
2022-10-12T05:32:18.134Z,86.42
2022-10-12T05:34:46.502Z,86.48
2022-10-12T05:37:14.267Z,86.30
2022-10-12T05:39:44.230Z,86.05
2022-10-12T05:42:11.911Z,86.27
2022-10-12T05:44:39.606Z,86.51
2022-10-12T05:47:07.318Z,86.49
2022-10-12T05:49:35.495Z,86.35
2022-10-12T05:52:03.375Z,86.38
2022-10-12T05:54:31.092Z,86.40
2022-10-12T05:57:00.146Z,86.74
2022-10-12T05:59:28.594Z,86.45
2022-10-12T06:01:56.403Z,86.36
2022-10-12T06:04:24.128Z,86.41
2022-10-12T06:06:51.860Z,86.41
2022-10-12T06:09:20.479Z,86.27
2022-10-12T06:11:48.250Z,86.21
2022-10-12T06:14:17.842Z,86.23
2022-10-12T06:16:45.520Z,86.19
2022-10-12T06:19:14.102Z,86.05
2022-10-12T06:21:41.812Z,86.21
2022-10-12T06:24:10.371Z,86.31
2022-10-12T06:26:38.088Z,86.25
2022-10-12T06:29:06.251Z,86.18
2022-10-12T06:31:35.281Z,85.98
2022-10-12T06:34:03.353Z,85.98
2022-10-12T06:36:31.042Z,85.73
2022-10-12T06:38:59.025Z,85.73
2022-10-12T06:41:26.717Z,85.77
2022-10-12T06:43:54.730Z,85.80
2022-10-12T06:46:22.415Z,85.72
2022-10-12T06:48:51.898Z,85.47
2022-10-12T06:51:19.554Z,85.39
2022-10-12T06:53:47.901Z,85.13
2022-10-12T06:56:15.593Z,85.40
2022-10-12T06:58:44.091Z,85.43
2022-10-12T07:01:11.805Z,85.24
2022-10-12T07:03:39.676Z,85.40
2022-10-12T07:06:11.364Z,85.33
2022-10-12T07:08:41.014Z,85.38
2022-10-12T07:11:10.775Z,85.18
2022-10-12T07:13:39.022Z,84.78
2022-10-12T07:16:07.483Z,85.03
2022-10-12T07:18:35.691Z,84.86
2022-10-12T07:21:04.000Z,84.48
2022-10-12T07:23:34.464Z,84.54
2022-10-12T07:26:02.484Z,84.48
2022-10-12T07:28:30.580Z,84.30
2022-10-12T07:31:03.049Z,84.33
2022-10-12T07:33:34.971Z,84.24
2022-10-12T07:36:13.901Z,84.25
2022-10-12T07:38:45.054Z,84.10
2022-10-12T07:41:14.506Z,83.45
2022-10-12T07:43:43.050Z,83.61
2022-10-12T07:46:12.379Z,83.30
2022-10-12T07:48:45.655Z,83.32
2022-10-12T07:51:15.739Z,83.19
2022-10-12T07:53:44.793Z,82.88
2022-10-12T07:56:16.361Z,82.68
2022-10-12T07:58:44.706Z,82.15
2022-10-12T08:01:13.141Z,82.17
2022-10-12T08:03:41.304Z,82.14
2022-10-12T08:06:10.869Z,81.98
2022-10-12T08:08:39.163Z,81.73
2022-10-12T08:11:09.008Z,81.55
2022-10-12T08:13:38.293Z,81.56
2022-10-12T08:16:09.084Z,81.36
2022-10-12T08:18:37.160Z,79.98
2022-10-12T08:21:05.319Z,79.55
2022-10-12T08:23:33.662Z,79.62
2022-10-12T08:26:01.716Z,79.33
2022-10-12T08:28:31.675Z,79.34
2022-10-12T08:30:59.408Z,78.92
2022-10-12T08:33:30.299Z,78.40
2022-10-12T08:35:58.015Z,77.35
2022-10-12T08:38:25.706Z,77.67
2022-10-12T08:41:01.057Z,77.93
2022-10-12T08:43:40.482Z,78.00
2022-10-12T08:46:09.087Z,77.23
2022-10-12T08:48:48.099Z,77.13
2022-10-12T08:51:19.994Z,77.18
2022-10-12T08:53:53.530Z,77.18
2022-10-12T08:56:22.291Z,77.33
2022-10-12T08:58:53.842Z,76.98
2022-10-12T09:01:29.052Z,77.28
2022-10-12T09:04:18.247Z,77.52
2022-10-12T09:06:48.893Z,77.54
2022-10-12T09:09:37.966Z,77.42
2022-10-12T09:12:25.170Z,76.88
2022-10-12T09:15:01.821Z,76.49
2022-10-12T09:17:38.142Z,76.39
2022-10-12T09:20:16.826Z,76.34
2022-10-12T09:22:48.499Z,76.31
2022-10-12T09:25:18.367Z,75.72
2022-10-12T09:27:47.339Z,75.48
2022-10-12T09:30:19.070Z,75.05
2022-10-12T09:33:04.453Z,75.73
2022-10-12T09:35:32.801Z,75.23
2022-10-12T09:38:01.908Z,74.96
2022-10-12T09:40:32.449Z,74.79
2022-10-12T09:43:01.902Z,74.11
2022-10-12T09:45:34.397Z,74.33
2022-10-12T09:48:18.201Z,74.09
2022-10-12T09:50:51.380Z,73.13
2022-10-12T09:53:27.873Z,74.28
2022-10-12T09:56:00.936Z,73.05
2022-10-12T09:58:30.302Z,72.14
2022-10-12T10:01:23.335Z,72.07
2022-10-12T10:04:07.950Z,71.86
2022-10-12T10:06:35.989Z,71.04
2022-10-12T10:09:04.140Z,72.01
2022-10-12T10:11:32.562Z,70.97
2022-10-12T10:14:02.552Z,68.94
2022-10-12T10:16:32.042Z,68.98
2022-10-12T10:19:02.164Z,69.33
2022-10-12T10:21:33.109Z,69.58
2022-10-12T10:24:02.810Z,68.64
2022-10-12T10:26:51.129Z,67.08
2022-10-12T10:29:31.982Z,67.92
2022-10-12T10:32:24.064Z,68.21
2022-10-12T10:35:03.122Z,67.71
2022-10-12T10:37:31.822Z,67.77
2022-10-12T10:40:00.538Z,67.62
2022-10-12T10:42:31.803Z,67.67
2022-10-12T10:45:03.261Z,67.68
2022-10-12T10:47:34.516Z,68.38
2022-10-12T10:50:04.652Z,67.87
2022-10-12T10:52:34.657Z,68.27
2022-10-12T10:55:19.756Z,68.33
2022-10-12T10:57:56.733Z,68.38
2022-10-12T11:00:41.191Z,68.81
2022-10-12T11:03:17.199Z,68.23
2022-10-12T11:05:50.667Z,68.34
2022-10-12T11:08:23.466Z,68.14
2022-10-12T11:10:57.351Z,68.12
2022-10-12T11:13:30.493Z,66.54
2022-10-12T11:16:04.007Z,66.90
2022-10-12T11:18:39.451Z,66.63
2022-10-12T11:21:13.469Z,67.09
2022-10-12T11:23:47.130Z,67.56
2022-10-12T11:26:24.171Z,67.65
2022-10-12T11:28:54.234Z,67.05
2022-10-12T11:31:27.406Z,67.15
2022-10-12T11:34:00.561Z,67.71
2022-10-12T11:36:31.843Z,66.67
2022-10-12T11:39:06.862Z,66.93
2022-10-12T11:42:03.238Z,67.40
2022-10-12T11:44:40.853Z,67.09
2022-10-12T11:47:17.200Z,67.51
2022-10-12T11:49:55.369Z,66.94
2022-10-12T11:52:28.756Z,66.01
2022-10-12T11:55:07.059Z,66.66
2022-10-12T11:57:38.721Z,65.82
2022-10-12T12:00:16.937Z,66.52
2022-10-12T12:02:50.136Z,66.07
2022-10-12T12:05:19.948Z,66.02
2022-10-12T12:07:50.078Z,66.78
2022-10-12T12:11:04.271Z,67.34
2022-10-12T12:13:33.089Z,67.63
2022-10-12T12:16:35.251Z,66.80
2022-10-12T12:19:41.327Z,66.34
2022-10-12T12:22:20.478Z,66.49
2022-10-12T12:25:05.358Z,66.24
2022-10-12T12:27:37.063Z,66.84
2022-10-12T12:30:21.372Z,67.34
2022-10-12T12:32:52.590Z,66.47
2022-10-12T12:35:25.422Z,66.99
2022-10-12T12:38:08.701Z,67.33
2022-10-12T12:40:36.933Z,66.84
2022-10-12T12:43:20.210Z,66.31
2022-10-12T12:45:57.179Z,66.80
2022-10-12T12:48:58.683Z,67.88
2022-10-12T12:51:35.234Z,67.69
2022-10-12T12:54:07.927Z,68.17
2022-10-12T12:56:42.316Z,67.73
2022-10-12T12:59:29.385Z,66.94
2022-10-12T13:02:21.607Z,66.58
2022-10-12T13:05:08.942Z,66.47
2022-10-12T13:08:03.275Z,65.73
2022-10-12T13:10:44.557Z,65.38
2022-10-12T13:13:39.048Z,65.82
2022-10-12T13:16:57.213Z,66.22
2022-10-12T13:19:13.554Z,66.70
2022-10-12T13:21:45.320Z,65.76
2022-10-12T13:24:17.874Z,65.85
2022-10-12T13:26:49.839Z,66.37
2022-10-12T13:29:24.148Z,66.26
2022-10-12T13:31:54.916Z,66.42
2022-10-12T13:34:26.599Z,66.51
2022-10-12T13:37:00.247Z,66.38
2022-10-12T13:39:29.577Z,66.04
2022-10-12T13:42:01.801Z,65.37
2022-10-12T13:44:34.393Z,65.10
2022-10-12T13:47:09.403Z,65.81
2022-10-12T13:49:44.342Z,66.21
2022-10-12T13:52:23.227Z,66.72
2022-10-12T13:54:52.255Z,67.23
2022-10-12T13:57:29.066Z,67.32
2022-10-12T14:00:00.237Z,65.95
2022-10-12T14:02:30.445Z,65.57
2022-10-12T14:05:01.245Z,65.80
2022-10-12T14:07:33.078Z,66.22
2022-10-12T14:10:03.885Z,66.83
2022-10-12T14:12:36.835Z,66.47
2022-10-12T14:15:07.283Z,67.22
2022-10-12T14:17:34.967Z,67.74
2022-10-12T14:20:17.994Z,67.65
2022-10-12T14:22:48.972Z,67.87
2022-10-12T14:25:19.990Z,67.40
2022-10-12T14:27:55.778Z,67.12
2022-10-12T14:30:26.526Z,66.86
2022-10-12T14:32:59.491Z,66.42
2022-10-12T14:35:29.553Z,66.61
2022-10-12T14:37:57.636Z,66.50
2022-10-12T14:40:30.890Z,66.72
2022-10-12T14:43:03.457Z,66.62
2022-10-12T14:45:32.329Z,67.27
2022-10-12T14:48:01.444Z,67.21
2022-10-12T14:50:31.985Z,67.46
2022-10-12T14:53:03.578Z,67.59
2022-10-12T14:55:32.906Z,67.55
2022-10-12T14:58:02.608Z,67.81
2022-10-12T15:00:32.126Z,67.74
2022-10-12T15:02:59.925Z,67.90
2022-10-12T15:05:31.995Z,68.07
2022-10-12T15:08:00.326Z,68.74
2022-10-12T15:10:30.403Z,68.91
2022-10-12T15:12:58.058Z,68.92
2022-10-12T15:15:33.510Z,69.15
2022-10-12T15:18:01.314Z,69.38
2022-10-12T15:20:30.861Z,69.98
2022-10-12T15:22:59.134Z,70.29
2022-10-12T15:25:33.804Z,70.03
2022-10-12T15:28:01.835Z,70.29
2022-10-12T15:30:31.273Z,70.43
2022-10-12T15:32:58.981Z,70.88
2022-10-12T15:35:28.825Z,71.25
2022-10-12T15:37:57.238Z,71.28
2022-10-12T15:40:25.784Z,71.71
2022-10-12T15:42:53.454Z,71.84
2022-10-12T15:45:24.346Z,72.04
2022-10-12T15:47:54.491Z,72.34
2022-10-12T15:50:24.644Z,72.74
2022-10-12T15:52:53.766Z,72.96
2022-10-12T15:55:24.359Z,73.31
2022-10-12T15:57:52.525Z,73.66
2022-10-12T16:00:22.606Z,73.93
2022-10-12T16:02:50.402Z,74.35
2022-10-12T16:05:22.008Z,74.44
2022-10-12T16:07:49.957Z,74.46
2022-10-12T16:10:19.705Z,74.94
2022-10-12T16:12:50.673Z,75.06
2022-10-12T16:15:21.780Z,75.44
2022-10-12T16:17:49.793Z,75.69
2022-10-12T16:20:18.993Z,75.96
2022-10-12T16:22:48.852Z,76.17
2022-10-12T16:25:19.071Z,76.38
2022-10-12T16:27:47.211Z,76.58
2022-10-12T16:30:15.756Z,76.75
2022-10-12T16:32:43.598Z,76.96
2022-10-12T16:35:12.660Z,77.19
2022-10-12T16:37:40.874Z,77.06
2022-10-12T16:40:12.382Z,77.26
2022-10-12T16:42:40.255Z,77.58
2022-10-12T16:45:09.002Z,77.72
2022-10-12T16:47:41.985Z,78.14
2022-10-12T16:50:11.412Z,78.34
2022-10-12T16:52:39.805Z,78.58
2022-10-12T16:55:08.412Z,78.33
2022-10-12T16:57:38.581Z,78.47
2022-10-12T17:00:07.638Z,78.73
2022-10-12T17:02:35.652Z,78.99
2022-10-12T17:05:03.847Z,78.88
2022-10-12T17:07:31.599Z,79.14
2022-10-12T17:09:59.349Z,79.18
2022-10-12T17:12:27.600Z,79.38
2022-10-12T17:14:56.926Z,79.23
2022-10-12T17:17:24.588Z,79.43
2022-10-12T17:19:52.801Z,79.51
2022-10-12T17:22:20.555Z,79.63
2022-10-12T17:24:48.650Z,80.03
2022-10-12T17:27:16.797Z,80.23
2022-10-12T17:29:45.083Z,80.41
2022-10-12T17:32:14.988Z,80.51
2022-10-12T17:34:45.003Z,80.68
2022-10-12T17:37:14.747Z,80.90
2022-10-12T17:39:44.936Z,80.94
2022-10-12T17:42:13.739Z,81.13
2022-10-12T17:44:41.677Z,80.87
2022-10-12T17:47:09.642Z,81.24
2022-10-12T17:49:38.633Z,81.10
2022-10-12T17:52:07.333Z,81.31
2022-10-12T17:54:35.373Z,81.23
2022-10-12T17:57:03.527Z,81.49
2022-10-12T17:59:31.186Z,81.47
2022-10-12T18:01:59.050Z,81.55
2022-10-12T18:04:26.728Z,81.46
2022-10-12T18:06:56.092Z,81.48
2022-10-12T18:09:23.744Z,81.27
2022-10-12T18:11:51.711Z,81.24
2022-10-12T18:14:19.722Z,81.33
2022-10-12T18:16:48.028Z,81.60
2022-10-12T18:19:15.723Z,81.86
2022-10-12T18:21:44.078Z,81.80
2022-10-12T18:24:17.297Z,81.98
2022-10-12T18:26:47.033Z,82.11
2022-10-12T18:29:18.482Z,82.29
2022-10-12T18:31:46.273Z,82.26
2022-10-12T18:34:13.992Z,82.21
2022-10-12T18:36:42.801Z,82.05
2022-10-12T18:39:10.705Z,82.07
2022-10-12T18:41:39.851Z,82.13
2022-10-12T18:44:09.038Z,82.22
2022-10-12T18:46:37.474Z,82.14
2022-10-12T18:49:07.889Z,82.21
2022-10-12T18:51:38.532Z,82.15
2022-10-12T18:54:06.827Z,82.23
2022-10-12T18:56:36.905Z,82.51
2022-10-12T18:59:07.289Z,82.49
2022-10-12T19:01:35.662Z,82.53
2022-10-12T19:04:03.961Z,82.63
2022-10-12T19:06:34.973Z,82.76
2022-10-12T19:09:02.793Z,82.48
2022-10-12T19:11:31.541Z,82.51
2022-10-12T19:14:01.250Z,82.25
2022-10-12T19:16:30.637Z,82.28
2022-10-12T19:19:00.678Z,82.16
2022-10-12T19:21:28.966Z,81.82
2022-10-12T19:23:56.967Z,82.02
2022-10-12T19:26:27.906Z,82.07
2022-10-12T19:28:57.675Z,82.26
2022-10-12T19:31:27.346Z,82.27
2022-10-12T19:33:57.882Z,82.67
2022-10-12T19:36:25.842Z,82.94
2022-10-12T19:38:56.336Z,83.04
2022-10-12T19:41:24.483Z,82.90
2022-10-12T19:43:53.318Z,82.81
2022-10-12T19:46:21.438Z,82.88
2022-10-12T19:48:50.864Z,82.86
2022-10-12T19:51:21.310Z,83.06
2022-10-12T19:53:49.481Z,83.01
2022-10-12T19:56:20.728Z,82.96
2022-10-12T19:58:50.051Z,83.00
2022-10-12T20:01:20.095Z,83.37
2022-10-12T20:03:49.946Z,83.60
2022-10-12T20:06:18.441Z,83.45
2022-10-12T20:08:48.659Z,83.48
2022-10-12T20:11:22.525Z,83.46
2022-10-12T20:13:52.624Z,83.50
2022-10-12T20:16:21.353Z,83.69
2022-10-12T20:18:49.812Z,83.86
2022-10-12T20:21:19.887Z,83.91
2022-10-12T20:23:50.302Z,83.93
2022-10-12T20:26:20.021Z,83.90
2022-10-12T20:28:48.573Z,83.79
2022-10-12T20:31:18.523Z,84.04
2022-10-12T20:33:46.938Z,84.20
2022-10-12T20:36:20.914Z,84.00
2022-10-12T20:38:50.300Z,83.76
2022-10-12T20:41:18.635Z,83.56
2022-10-12T20:43:46.349Z,83.58
2022-10-12T20:46:15.977Z,83.53
2022-10-12T20:48:45.785Z,83.59
2022-10-12T20:51:18.760Z,83.59
2022-10-12T20:53:46.820Z,83.65
2022-10-12T20:56:15.838Z,83.55
2022-10-12T20:58:43.806Z,83.50
2022-10-12T21:01:13.312Z,83.30
2022-10-12T21:03:42.187Z,83.31
2022-10-12T21:06:11.627Z,83.19
2022-10-12T21:08:39.944Z,83.30
2022-10-12T21:11:08.852Z,82.97
2022-10-12T21:13:41.357Z,83.08
2022-10-12T21:16:10.472Z,83.14
2022-10-12T21:18:40.097Z,82.61
2022-10-12T21:21:11.431Z,82.72
2022-10-12T21:23:40.848Z,82.82
2022-10-12T21:26:13.555Z,82.72
2022-10-12T21:28:42.715Z,82.66
2022-10-12T21:31:11.142Z,82.75
2022-10-12T21:33:40.179Z,83.48
2022-10-12T21:36:09.500Z,83.81
2022-10-12T21:38:37.859Z,83.81
2022-10-12T21:41:06.659Z,84.45
2022-10-12T21:43:34.641Z,84.64
2022-10-12T21:46:05.223Z,84.38
2022-10-12T21:48:33.968Z,84.49
2022-10-12T21:51:02.533Z,84.97
2022-10-12T21:53:30.698Z,84.86
2022-10-12T21:55:58.481Z,85.33
2022-10-12T21:58:26.183Z,85.16
2022-10-12T22:00:55.133Z,85.26
2022-10-12T22:03:24.268Z,85.32
2022-10-12T22:05:52.400Z,85.19
2022-10-12T22:08:20.098Z,85.31
2022-10-12T22:10:48.162Z,85.98
2022-10-12T22:13:15.864Z,86.11
2022-10-12T22:15:47.326Z,86.17
2022-10-12T22:18:15.014Z,86.25
2022-10-12T22:20:44.352Z,86.35
2022-10-12T22:23:12.039Z,86.79
2022-10-12T22:25:40.197Z,87.01
2022-10-12T22:28:07.861Z,87.10
2022-10-12T22:30:40.439Z,86.96
2022-10-12T22:33:08.169Z,87.09
2022-10-12T22:35:36.041Z,87.14
2022-10-12T22:38:05.075Z,87.05
2022-10-12T22:40:33.115Z,87.30
2022-10-12T22:43:00.827Z,87.62
2022-10-12T22:45:28.790Z,87.79
2022-10-12T22:47:56.467Z,87.43
2022-10-12T22:50:24.862Z,87.46
2022-10-12T22:52:52.541Z,87.55
2022-10-12T22:55:22.194Z,87.97
2022-10-12T22:57:49.911Z,88.03
2022-10-12T23:00:18.539Z,87.58
2022-10-12T23:02:46.218Z,87.12
2022-10-12T23:05:14.543Z,86.94
2022-10-12T23:07:42.232Z,86.67
2022-10-12T23:10:10.411Z,87.01
2022-10-12T23:12:39.746Z,87.14
2022-10-12T23:15:08.519Z,87.96
2022-10-12T23:17:36.209Z,87.79
2022-10-12T23:20:05.062Z,87.69
2022-10-12T23:22:33.087Z,87.51
2022-10-12T23:25:01.091Z,86.55
2022-10-12T23:27:29.535Z,86.33
2022-10-12T23:29:58.910Z,85.94
2022-10-12T23:32:26.664Z,85.79
2022-10-12T23:34:54.933Z,85.79
2022-10-12T23:37:22.580Z,86.00
2022-10-12T23:39:50.911Z,86.29
2022-10-12T23:42:18.783Z,87.06
2022-10-12T23:44:47.038Z,86.93
2022-10-12T23:47:16.096Z,86.92
2022-10-12T23:49:44.838Z,86.21
2022-10-12T23:52:13.543Z,85.51
2022-10-12T23:54:41.898Z,85.63
2022-10-12T23:57:28.099Z,85.84
2022-10-12T23:59:57.570Z,86.51
